Portada
METAR-TAF:

METAR-TAF

Aeropuertos :

Béziers, Francia

latitud: 43-19N, longitud: 003-21E, altitud: 17 m

Observación

El informe se hizo hace 21 minutos, a las 11:00 UTC
Viento 12 kt del sureste
Temperatura 16°C
Humedad 82%
Presión 1018 hPa
Visibilidad 10 km o más
Nubes dispersas a una altura de 2900 ft
Cielo nuboso a una altura de 5600 ft

METAR: LFMU 231100Z AUTO 13012KT 9999 SCT029 BKN056 16/13 Q1018 TEMPO DZ OVC008

Hora: 12:21 (11:21 UTC)

Pronóstico

El informe se hizo hace 3 horas y 21 minutos, a las 08:00 UTC
Pronóstico válido del 23 a las 09 UTC al 24 a las 09 UTC
Viento 10 kt del este
Visibilidad 10 km o más
Cielo nuboso a una altura de 2500 ft
Cielo nuboso a una altura de 3500 ft
Temporalmente
del 23 a las 12 UTC al 24 a las 09 UTC
Cielo cubierto a una altura de 800 ft
llovizna

TAF: LFMU 230800Z 2309/2409 10010KT 9999 BKN025 BKN035 TEMPO 2312/2409 DZ OVC008

Observaciones y pronósticos meteorológicos de más de 4000 aeropuertos (mensajes METAR y TAF).

Los puntos amarillos y rojos representan las estaciones disponibles.

Ponga el ratón en el punto deseado para ver el nombre de la estación.

Haga clic para ver las observaciones y los pronósticos meteorológicos.

Para cambiar el mapa : haga clic en los botones verdes con una cruz de color negro para hacer un zoom, en el botón verde con un guión para alejar o en las flechas verdes para mapas adyacentes.


METAR-TAF: